createdAt,value
2023-04-04T00:01:09.174Z,92.40
2023-04-04T00:03:37.825Z,92.40
2023-04-04T00:06:07.839Z,92.10
2023-04-04T00:08:36.079Z,91.90
2023-04-04T00:11:06.567Z,91.90
2023-04-04T00:13:35.306Z,91.60
2023-04-04T00:16:04.268Z,91.40
2023-04-04T00:18:32.874Z,91.50
2023-04-04T00:21:01.721Z,91.50
2023-04-04T00:23:30.148Z,91.60
2023-04-04T00:25:58.914Z,91.40
2023-04-04T00:28:27.370Z,90.90
2023-04-04T00:30:56.380Z,91.00
2023-04-04T00:33:25.002Z,91.30
2023-04-04T00:35:55.010Z,90.70
2023-04-04T00:38:23.560Z,90.70
2023-04-04T00:40:52.481Z,90.90
2023-04-04T00:43:21.361Z,90.70
2023-04-04T00:45:52.477Z,90.60
2023-04-04T00:48:21.629Z,90.30
2023-04-04T00:50:50.670Z,90.10
2023-04-04T00:53:19.207Z,90.40
2023-04-04T00:55:48.058Z,90.10
2023-04-04T00:58:16.436Z,90.10
2023-04-04T01:00:45.178Z,90.20
2023-04-04T01:03:14.643Z,90.10
2023-04-04T01:05:43.386Z,90.00
2023-04-04T01:08:12.257Z,89.70
2023-04-04T01:10:41.187Z,89.90
2023-04-04T01:13:09.981Z,90.00
2023-04-04T01:15:38.783Z,89.70
2023-04-04T01:18:07.866Z,90.00
2023-04-04T01:20:42.754Z,89.50
2023-04-04T01:23:11.542Z,89.30
2023-04-04T01:25:40.731Z,89.40
2023-04-04T01:28:14.835Z,89.50
2023-04-04T01:30:44.856Z,89.50
2023-04-04T01:33:23.982Z,89.70
2023-04-04T01:36:04.986Z,89.40
2023-04-04T01:38:44.870Z,89.30
2023-04-04T01:41:14.945Z,89.20
2023-04-04T01:43:50.023Z,89.00
2023-04-04T01:46:19.007Z,89.30
2023-04-04T01:48:50.031Z,89.00
2023-04-04T01:51:24.133Z,88.90
2023-04-04T01:53:54.197Z,89.00
2023-04-04T01:56:23.205Z,89.30
2023-04-04T01:58:52.636Z,89.40
2023-04-04T02:01:21.520Z,89.00
2023-04-04T02:03:49.996Z,89.20
2023-04-04T02:06:18.887Z,89.30
2023-04-04T02:08:47.394Z,89.10
2023-04-04T02:11:16.519Z,88.90
2023-04-04T02:13:44.929Z,88.80
2023-04-04T02:16:17.420Z,88.80
2023-04-04T02:18:46.162Z,88.90
2023-04-04T02:21:14.963Z,89.40
2023-04-04T02:23:43.318Z,89.20
2023-04-04T02:26:12.114Z,89.30
2023-04-04T02:28:40.472Z,89.10
2023-04-04T02:31:09.216Z,89.20
2023-04-04T02:33:37.990Z,89.50
2023-04-04T02:36:09.139Z,89.20
2023-04-04T02:38:38.515Z,89.00
2023-04-04T02:41:07.962Z,89.20
2023-04-04T02:43:37.841Z,89.00
2023-04-04T02:46:20.649Z,88.80
2023-04-04T02:48:52.440Z,88.80
2023-04-04T02:51:21.863Z,88.80
2023-04-04T02:53:50.241Z,88.90
2023-04-04T02:56:24.611Z,88.80
2023-04-04T02:58:53.382Z,88.70
2023-04-04T03:01:22.287Z,88.60
2023-04-04T03:03:50.892Z,88.10
2023-04-04T03:06:20.098Z,88.30
2023-04-04T03:08:50.750Z,88.40
2023-04-04T03:11:21.729Z,87.90
2023-04-04T03:13:53.649Z,87.50
2023-04-04T03:16:27.618Z,87.60
2023-04-04T03:18:56.718Z,87.70
2023-04-04T03:21:26.116Z,87.60
2023-04-04T03:23:58.090Z,87.00
2023-04-04T03:26:29.565Z,87.30
2023-04-04T03:28:58.214Z,86.90
2023-04-04T03:31:28.298Z,87.00
2023-04-04T03:33:56.724Z,87.00
2023-04-04T03:36:26.132Z,86.60
2023-04-04T03:38:54.456Z,86.70
2023-04-04T03:41:23.116Z,87.50
2023-04-04T03:43:51.569Z,86.10
2023-04-04T03:46:20.549Z,86.20
2023-04-04T03:48:50.002Z,85.90
2023-04-04T03:51:25.799Z,86.00
2023-04-04T03:53:54.395Z,86.20
2023-04-04T03:56:23.141Z,86.10
2023-04-04T03:58:51.785Z,85.90
2023-04-04T04:01:23.536Z,86.10
2023-04-04T04:03:52.018Z,85.60
2023-04-04T04:06:20.894Z,85.50
2023-04-04T04:08:49.952Z,85.40
2023-04-04T04:11:20.165Z,85.30
2023-04-04T04:13:48.796Z,84.90
2023-04-04T04:16:18.156Z,84.60
2023-04-04T04:18:47.244Z,84.70
2023-04-04T04:21:23.225Z,84.50
2023-04-04T04:23:52.077Z,84.60
2023-04-04T04:26:21.744Z,84.60
2023-04-04T04:28:50.406Z,84.00
2023-04-04T04:31:27.425Z,84.00
2023-04-04T04:33:58.209Z,83.90
2023-04-04T04:36:31.340Z,83.90
2023-04-04T04:39:15.461Z,84.10
2023-04-04T04:41:56.912Z,83.50
2023-04-04T04:44:26.580Z,83.00
2023-04-04T04:46:58.358Z,83.10
2023-04-04T04:49:27.684Z,82.80
2023-04-04T04:51:57.360Z,82.90
2023-04-04T04:54:26.600Z,82.20
2023-04-04T04:56:57.269Z,82.10
2023-04-04T04:59:27.571Z,81.80
2023-04-04T05:01:56.985Z,82.20
2023-04-04T05:04:27.675Z,82.20
2023-04-04T05:07:08.678Z,81.30
2023-04-04T05:09:37.437Z,81.50
2023-04-04T05:12:08.085Z,81.50
2023-04-04T05:14:44.097Z,82.00
2023-04-04T05:17:13.374Z,82.80
2023-04-04T05:19:42.522Z,84.00
2023-04-04T05:22:17.093Z,84.10
2023-04-04T05:24:49.872Z,84.80
2023-04-04T05:27:23.406Z,83.30
2023-04-04T05:29:58.417Z,83.70
2023-04-04T05:32:35.830Z,83.10
2023-04-04T05:35:11.215Z,81.90
2023-04-04T05:37:41.287Z,82.40
2023-04-04T05:40:14.237Z,82.10
2023-04-04T05:42:56.379Z,81.30
2023-04-04T05:45:28.354Z,81.40
2023-04-04T05:47:58.712Z,82.00
2023-04-04T05:50:31.814Z,81.30
2023-04-04T05:53:05.050Z,81.80
2023-04-04T05:55:34.043Z,80.70
2023-04-04T05:58:03.696Z,80.70
2023-04-04T06:00:44.500Z,80.20
2023-04-04T06:03:14.621Z,80.40
2023-04-04T06:05:44.935Z,79.40
2023-04-04T06:08:14.590Z,79.70
2023-04-04T06:10:43.232Z,79.80
2023-04-04T06:13:12.249Z,79.60
2023-04-04T06:15:43.295Z,80.10
2023-04-04T06:18:12.764Z,80.80
2023-04-04T06:20:41.932Z,79.60
2023-04-04T06:23:11.531Z,79.10
2023-04-04T06:25:44.538Z,79.00
2023-04-04T06:28:16.218Z,78.70
2023-04-04T06:30:47.310Z,79.10
2023-04-04T06:33:18.842Z,79.90
2023-04-04T06:35:50.093Z,79.30
2023-04-04T06:38:19.799Z,79.80
2023-04-04T06:40:48.639Z,79.50
2023-04-04T06:43:17.696Z,78.60
2023-04-04T06:45:48.171Z,79.60
2023-04-04T06:48:17.316Z,79.80
2023-04-04T06:50:46.493Z,79.30
2023-04-04T06:53:18.096Z,79.50
2023-04-04T06:55:46.735Z,79.70
2023-04-04T06:58:15.668Z,79.50
2023-04-04T07:00:44.358Z,78.80
2023-04-04T07:03:13.424Z,78.90
2023-04-04T07:05:42.390Z,78.80
2023-04-04T07:08:11.860Z,78.40
2023-04-04T07:10:41.395Z,77.30
2023-04-04T07:13:11.500Z,77.20
2023-04-04T07:15:40.183Z,78.40
2023-04-04T07:18:09.335Z,76.30
2023-04-04T07:20:38.219Z,76.50
2023-04-04T07:23:07.706Z,76.00
2023-04-04T07:25:36.427Z,75.70
2023-04-04T07:28:12.330Z,74.80
2023-04-04T07:30:42.240Z,74.70
2023-04-04T07:33:12.023Z,74.90
2023-04-04T07:35:40.921Z,74.80
2023-04-04T07:38:10.562Z,74.00
2023-04-04T07:40:39.352Z,74.10
2023-04-04T07:43:08.629Z,73.90
2023-04-04T07:45:37.393Z,72.40
2023-04-04T07:48:07.068Z,73.30
2023-04-04T07:50:35.763Z,71.80
2023-04-04T07:53:04.745Z,72.50
2023-04-04T07:55:33.335Z,72.50
2023-04-04T07:58:02.777Z,70.10
2023-04-04T08:00:31.728Z,71.20
2023-04-04T08:03:01.917Z,71.30
2023-04-04T08:05:30.669Z,70.40
2023-04-04T08:07:59.792Z,71.30
2023-04-04T08:10:28.378Z,70.70
2023-04-04T08:12:57.431Z,70.50
2023-04-04T08:15:25.949Z,70.40
2023-04-04T08:17:56.255Z,69.60
2023-04-04T08:20:24.829Z,70.10
2023-04-04T08:22:53.871Z,70.30
2023-04-04T08:25:22.408Z,69.70
2023-04-04T08:27:51.260Z,69.00
2023-04-04T08:30:20.009Z,70.20
2023-04-04T08:32:48.968Z,69.00
2023-04-04T08:35:17.709Z,67.80
2023-04-04T08:37:46.930Z,68.80
2023-04-04T08:40:15.975Z,69.20
2023-04-04T08:42:46.391Z,68.30
2023-04-04T08:45:18.731Z,69.70
2023-04-04T08:47:51.153Z,68.50
2023-04-04T08:50:19.549Z,68.40
2023-04-04T08:52:48.294Z,68.40
2023-04-04T08:55:16.794Z,68.30
2023-04-04T08:57:45.549Z,68.40
2023-04-04T09:00:17.041Z,67.90
2023-04-04T09:03:27.752Z,67.60
2023-04-04T09:05:56.655Z,67.20
2023-04-04T09:08:25.684Z,67.30
2023-04-04T09:10:54.076Z,68.60
2023-04-04T09:13:23.069Z,66.80
2023-04-04T09:15:54.356Z,66.70
2023-04-04T09:18:23.278Z,66.80
2023-04-04T09:20:51.767Z,66.00
2023-04-04T09:23:21.205Z,65.80
2023-04-04T09:28:24.445Z,65.90
2023-04-04T09:30:53.256Z,65.70
2023-04-04T09:33:24.171Z,65.80
2023-04-04T09:35:59.022Z,65.90
2023-04-04T09:38:29.242Z,65.70
2023-04-04T09:40:57.955Z,65.60
2023-04-04T09:43:26.893Z,65.60
2023-04-04T09:45:55.486Z,65.40
2023-04-04T09:48:29.056Z,65.60
2023-04-04T09:51:01.011Z,65.30
2023-04-04T09:53:29.990Z,65.50
2023-04-04T09:55:58.528Z,65.30
2023-04-04T09:58:29.000Z,65.30
2023-04-04T10:01:02.189Z,65.30
2023-04-04T10:03:31.329Z,65.10
2023-04-04T10:06:07.761Z,64.50
2023-04-04T10:08:42.068Z,65.00
2023-04-04T10:11:12.246Z,64.70
2023-04-04T10:13:42.390Z,64.50
2023-04-04T10:16:12.302Z,64.50
2023-04-04T10:18:41.708Z,65.40
2023-04-04T10:23:42.699Z,64.60
2023-04-04T10:26:11.986Z,65.00
2023-04-04T10:28:42.685Z,63.00
2023-04-04T10:31:25.653Z,63.30
2023-04-04T10:34:12.968Z,62.80
2023-04-04T10:37:07.424Z,63.00
2023-04-04T10:39:47.284Z,60.90
2023-04-04T10:42:19.020Z,59.70
2023-04-04T10:44:47.849Z,59.70
2023-04-04T10:47:22.071Z,58.90
2023-04-04T10:49:51.924Z,57.40
2023-04-04T10:52:23.015Z,53.70
2023-04-04T10:54:57.774Z,55.10
2023-04-04T10:57:26.275Z,55.30
2023-04-04T11:00:13.232Z,55.50
2023-04-04T11:02:58.593Z,55.60
2023-04-04T11:05:42.665Z,56.00
2023-04-04T11:08:14.516Z,56.30
2023-04-04T11:10:45.472Z,55.00
2023-04-04T11:13:35.703Z,55.30
2023-04-04T11:16:11.523Z,55.50
2023-04-04T11:18:43.851Z,55.20
2023-04-04T11:21:18.818Z,55.50
2023-04-04T11:23:50.305Z,54.90
2023-04-04T11:26:20.366Z,53.20
2023-04-04T11:28:48.873Z,53.90
2023-04-04T11:31:23.680Z,54.50
2023-04-04T11:34:05.165Z,53.80
2023-04-04T11:36:40.689Z,53.30
2023-04-04T11:39:31.323Z,53.70
2023-04-04T11:42:14.184Z,53.70
2023-04-04T11:45:07.468Z,54.40
2023-04-04T11:47:36.493Z,54.70
2023-04-04T11:50:09.733Z,54.20
2023-04-04T11:52:38.782Z,53.70
2023-04-04T11:55:20.214Z,53.10
2023-04-04T11:57:51.621Z,53.30
2023-04-04T12:00:33.480Z,53.30
2023-04-04T12:03:02.397Z,53.30
2023-04-04T12:05:31.639Z,53.30
2023-04-04T12:08:02.645Z,54.30
2023-04-04T12:10:34.938Z,54.00
2023-04-04T12:13:07.539Z,53.40
2023-04-04T12:15:37.137Z,53.40
2023-04-04T12:18:09.478Z,53.40
2023-04-04T12:20:41.728Z,53.40
2023-04-04T12:23:10.687Z,52.80
2023-04-04T12:25:40.676Z,52.60
2023-04-04T12:28:09.751Z,52.90
2023-04-04T12:30:39.358Z,52.80
2023-04-04T12:33:08.160Z,52.60
2023-04-04T12:35:36.711Z,52.90
2023-04-04T12:38:11.268Z,52.90
2023-04-04T12:40:39.830Z,53.40
2023-04-04T12:43:09.225Z,53.50
2023-04-04T12:45:41.675Z,53.80
2023-04-04T12:48:15.146Z,53.80
2023-04-04T12:50:54.354Z,54.00
2023-04-04T12:55:57.261Z,54.60
2023-04-04T12:58:26.212Z,54.70
2023-04-04T13:00:55.666Z,55.10
2023-04-04T13:03:25.150Z,54.90
2023-04-04T13:05:53.972Z,54.50
2023-04-04T13:08:23.145Z,54.70
2023-04-04T13:11:03.910Z,54.90
2023-04-04T13:13:34.558Z,54.70
2023-04-04T13:16:14.910Z,54.60
2023-04-04T13:18:44.417Z,54.70
2023-04-04T13:21:13.590Z,54.90
2023-04-04T13:23:42.433Z,54.80
2023-04-04T13:26:11.497Z,54.70
2023-04-04T13:28:40.594Z,54.70
2023-04-04T13:31:10.249Z,54.50
2023-04-04T13:33:39.135Z,54.30
2023-04-04T13:36:07.810Z,54.60
2023-04-04T13:38:36.491Z,55.40
2023-04-04T13:41:04.859Z,54.70
2023-04-04T13:43:33.548Z,54.10
2023-04-04T13:46:01.932Z,54.10
2023-04-04T13:48:31.383Z,54.30
2023-04-04T13:50:59.836Z,54.30
2023-04-04T13:53:28.756Z,54.60
2023-04-04T13:56:17.222Z,54.40
2023-04-04T13:58:46.566Z,54.10
2023-04-04T14:01:14.899Z,54.10
2023-04-04T14:03:43.764Z,54.00
2023-04-04T14:06:12.671Z,54.00
2023-04-04T14:08:41.340Z,54.10
2023-04-04T14:11:09.716Z,54.10
2023-04-04T14:13:38.326Z,54.20
2023-04-04T14:16:08.784Z,54.30
2023-04-04T14:18:37.688Z,54.20
2023-04-04T14:21:06.521Z,54.40
2023-04-04T14:23:35.399Z,54.40
2023-04-04T14:26:04.664Z,54.40
2023-04-04T14:28:33.901Z,54.30
2023-04-04T14:31:02.354Z,54.40
2023-04-04T14:33:31.448Z,53.90
2023-04-04T14:36:00.082Z,54.10
2023-04-04T14:38:30.541Z,54.00
2023-04-04T14:41:01.154Z,54.40
2023-04-04T14:43:29.939Z,54.40
2023-04-04T14:45:58.325Z,54.50
2023-04-04T14:48:27.251Z,54.70
2023-04-04T14:50:55.625Z,54.10
2023-04-04T14:53:24.319Z,54.20
2023-04-04T14:55:53.510Z,54.60
2023-04-04T14:58:22.330Z,54.50
2023-04-04T15:00:50.905Z,54.20
2023-04-04T15:03:19.680Z,54.50
2023-04-04T15:05:49.314Z,54.70
2023-04-04T15:08:18.105Z,54.70
2023-04-04T15:10:46.557Z,54.80
2023-04-04T15:13:15.241Z,55.20
2023-04-04T15:15:43.756Z,55.40
2023-04-04T15:18:12.635Z,55.40
2023-04-04T15:20:41.083Z,55.20
2023-04-04T15:23:09.901Z,55.50
2023-04-04T15:25:38.415Z,55.40
2023-04-04T15:28:07.207Z,55.10
2023-04-04T15:30:35.610Z,55.30
2023-04-04T15:33:04.561Z,55.40
2023-04-04T15:35:33.291Z,55.60
2023-04-04T15:38:02.111Z,55.30
2023-04-04T15:40:30.593Z,55.40
2023-04-04T15:42:59.267Z,55.50
2023-04-04T15:45:27.830Z,55.30
2023-04-04T15:47:56.773Z,55.60
2023-04-04T15:50:25.350Z,55.50
2023-04-04T15:52:54.332Z,55.60
2023-04-04T15:55:22.892Z,55.60
2023-04-04T15:57:51.691Z,55.40
2023-04-04T16:00:20.440Z,55.50
2023-04-04T16:02:49.216Z,55.50
2023-04-04T16:05:17.986Z,55.50
2023-04-04T16:07:46.948Z,55.70
2023-04-04T16:10:15.661Z,55.40
2023-04-04T16:12:44.841Z,55.50
2023-04-04T16:15:13.707Z,55.40
2023-04-04T16:17:42.980Z,55.20
2023-04-04T16:20:12.242Z,55.30
2023-04-04T16:22:41.106Z,55.30
2023-04-04T16:25:09.957Z,55.30
2023-04-04T16:27:38.918Z,55.50
2023-04-04T16:30:08.508Z,55.20
2023-04-04T16:32:37.595Z,55.50
2023-04-04T16:35:06.834Z,55.70
2023-04-04T16:37:35.674Z,56.20
2023-04-04T16:40:05.367Z,56.00
2023-04-04T16:42:34.425Z,55.90
2023-04-04T16:45:03.105Z,56.10
2023-04-04T16:47:32.164Z,56.30
2023-04-04T16:50:00.697Z,56.80
2023-04-04T16:52:29.675Z,56.80
2023-04-04T16:54:58.157Z,58.00
2023-04-04T16:57:27.485Z,57.80
2023-04-04T16:59:55.990Z,58.10
2023-04-04T17:02:24.839Z,58.30
2023-04-04T17:04:53.749Z,58.50
2023-04-04T17:07:22.942Z,58.60
2023-04-04T17:09:52.178Z,58.90
2023-04-04T17:12:21.737Z,59.10
2023-04-04T17:14:50.155Z,58.80
2023-04-04T17:17:19.552Z,59.00
2023-04-04T17:19:48.023Z,59.10
2023-04-04T17:22:16.912Z,59.20
2023-04-04T17:24:45.700Z,59.50
2023-04-04T17:27:14.531Z,59.80
2023-04-04T17:29:43.168Z,60.10
2023-04-04T17:32:12.196Z,60.00
2023-04-04T17:34:41.094Z,59.80
2023-04-04T17:37:11.811Z,59.60
2023-04-04T17:39:40.372Z,60.10
2023-04-04T17:42:09.470Z,59.90
2023-04-04T17:44:38.302Z,60.10
2023-04-04T17:47:07.084Z,59.60
2023-04-04T17:49:35.716Z,59.70
2023-04-04T17:52:05.119Z,60.00
2023-04-04T17:54:34.118Z,59.40
2023-04-04T17:57:03.643Z,59.40
2023-04-04T17:59:32.384Z,59.20
2023-04-04T18:02:01.461Z,58.90
2023-04-04T18:04:30.047Z,59.20
2023-04-04T18:06:59.092Z,59.20
2023-04-04T18:09:29.123Z,59.20
2023-04-04T18:11:58.554Z,59.10
2023-04-04T18:14:27.377Z,59.20
2023-04-04T18:16:56.210Z,59.30
2023-04-04T18:19:24.934Z,59.10
2023-04-04T18:22:00.114Z,59.20
2023-04-04T18:24:29.368Z,59.50
2023-04-04T18:26:58.616Z,59.60
2023-04-04T18:29:27.381Z,59.80
2023-04-04T18:31:56.268Z,59.70
2023-04-04T18:34:24.964Z,60.00
2023-04-04T18:36:53.941Z,60.30
2023-04-04T18:39:22.388Z,60.50
2023-04-04T18:41:51.561Z,60.70
2023-04-04T18:44:21.454Z,60.80
2023-04-04T18:46:50.649Z,61.20
2023-04-04T18:49:19.401Z,61.10
2023-04-04T18:51:48.093Z,61.80
2023-04-04T18:54:16.519Z,61.60
2023-04-04T18:56:45.803Z,61.50
2023-04-04T18:59:15.040Z,61.80
2023-04-04T19:01:43.794Z,62.10
2023-04-04T19:04:12.257Z,62.50
2023-04-04T19:06:41.223Z,63.10
2023-04-04T19:09:09.957Z,64.00
2023-04-04T19:11:39.034Z,64.60
2023-04-04T19:14:09.252Z,64.80
2023-04-04T19:16:38.698Z,64.90
2023-04-04T19:19:07.521Z,65.40
2023-04-04T19:21:36.619Z,65.40
2023-04-04T19:24:06.749Z,65.80
2023-04-04T19:26:36.090Z,66.10
2023-04-04T19:29:05.703Z,66.20
2023-04-04T19:31:35.050Z,66.50
2023-04-04T19:34:03.925Z,66.80
2023-04-04T19:36:34.691Z,66.80
2023-04-04T19:39:04.014Z,66.90
2023-04-04T19:41:40.309Z,67.40
2023-04-04T19:44:23.184Z,67.70
2023-04-04T19:46:53.280Z,68.40
2023-04-04T19:49:24.538Z,68.30
2023-04-04T19:51:58.977Z,68.30
2023-04-04T19:54:40.931Z,68.40
2023-04-04T19:57:29.700Z,68.50
2023-04-04T20:00:17.976Z,68.70
2023-04-04T20:02:52.220Z,68.80
2023-04-04T20:05:32.524Z,68.80
2023-04-04T20:08:01.735Z,68.80
2023-04-04T20:10:38.405Z,69.10
2023-04-04T20:13:07.448Z,69.00
2023-04-04T20:15:48.328Z,68.20
2023-04-04T20:18:36.298Z,66.80
2023-04-04T20:21:10.665Z,66.80
2023-04-04T20:23:57.887Z,65.70
2023-04-04T20:26:59.673Z,67.10
2023-04-04T20:29:32.910Z,67.10
2023-04-04T20:32:08.846Z,67.80
2023-04-04T20:34:46.865Z,67.70
2023-04-04T20:37:22.409Z,67.40
2023-04-04T20:40:13.409Z,67.40
2023-04-04T20:42:42.205Z,67.30
2023-04-04T20:45:14.111Z,67.10
2023-04-04T20:47:53.062Z,66.90
2023-04-04T20:50:27.357Z,66.60
2023-04-04T20:53:03.785Z,66.50
2023-04-04T20:55:34.222Z,66.00
2023-04-04T20:58:28.370Z,66.20
2023-04-04T21:00:59.136Z,66.00
2023-04-04T21:03:34.545Z,65.90
2023-04-04T21:06:15.369Z,65.70
2023-04-04T21:08:45.895Z,65.60
2023-04-04T21:11:24.006Z,65.60
2023-04-04T21:13:52.465Z,65.80
2023-04-04T21:16:24.944Z,65.70
2023-04-04T21:18:59.485Z,65.60
2023-04-04T21:21:28.735Z,65.60
2023-04-04T21:24:01.201Z,65.60
2023-04-04T21:26:35.517Z,65.50
2023-04-04T21:29:18.744Z,66.30
2023-04-04T21:31:48.938Z,65.50
2023-04-04T21:34:22.745Z,65.60
2023-04-04T21:37:00.204Z,65.50
2023-04-04T21:39:29.946Z,65.70
2023-04-04T21:42:01.753Z,65.40
2023-04-04T21:44:31.402Z,65.50
2023-04-04T21:47:00.094Z,65.60
2023-04-04T21:49:28.801Z,65.40
2023-04-04T21:51:57.627Z,65.10
2023-04-04T21:54:26.113Z,65.30
2023-04-04T21:56:55.413Z,64.90
2023-04-04T21:59:24.053Z,64.70
2023-04-04T22:01:53.055Z,65.00
2023-04-04T22:04:21.670Z,64.60
2023-04-04T22:06:50.533Z,64.40
2023-04-04T22:09:22.852Z,64.20
2023-04-04T22:11:54.035Z,64.40
2023-04-04T22:14:22.570Z,64.50
2023-04-04T22:16:53.412Z,65.00
2023-04-04T22:19:23.822Z,65.10
2023-04-04T22:21:54.295Z,65.30
2023-04-04T22:24:23.119Z,65.40
2023-04-04T22:26:51.920Z,65.40
2023-04-04T22:29:20.432Z,65.20
2023-04-04T22:31:49.334Z,65.40
2023-04-04T22:34:17.829Z,65.40
2023-04-04T22:36:46.584Z,65.40
2023-04-04T22:39:16.433Z,65.70
2023-04-04T22:41:45.428Z,65.90
2023-04-04T22:44:14.247Z,66.10
2023-04-04T22:46:43.181Z,65.90
2023-04-04T22:49:13.646Z,66.00
2023-04-04T22:51:46.062Z,66.00
2023-04-04T22:54:17.471Z,66.10
2023-04-04T22:56:46.613Z,66.00
2023-04-04T22:59:15.551Z,66.10
2023-04-04T23:01:44.483Z,66.00
2023-04-04T23:04:13.569Z,66.10
2023-04-04T23:06:43.249Z,66.10
2023-04-04T23:09:11.697Z,66.20
2023-04-04T23:11:40.910Z,66.40
2023-04-04T23:14:09.855Z,66.30
2023-04-04T23:16:38.757Z,66.40
2023-04-04T23:19:07.725Z,66.50
2023-04-04T23:21:36.948Z,66.50
2023-04-04T23:24:07.174Z,66.70
2023-04-04T23:26:36.234Z,66.60
2023-04-04T23:29:05.970Z,66.60
2023-04-04T23:31:36.678Z,66.60
2023-04-04T23:34:05.205Z,66.70
2023-04-04T23:36:34.369Z,66.70
2023-04-04T23:39:04.287Z,66.90
2023-04-04T23:41:33.386Z,66.90
2023-04-04T23:44:02.357Z,66.90
2023-04-04T23:46:32.773Z,67.00
2023-04-04T23:49:02.281Z,67.00
2023-04-04T23:51:38.188Z,67.00
2023-04-04T23:54:08.189Z,67.20
2023-04-04T23:56:36.823Z,67.00
2023-04-04T23:59:06.336Z,67.90
